AFR106 LGKR-LFLL
Flight info
| Callsign | AFR106 |
|---|---|
| Flight time | N/A |
| Altitude | 40000 |
| Route | TIGRA DCT DAMIC DCT BAR DCT EKMIL DCT TINKU DCT GEN DCT NEDED DCT TOP DCT RONOP DCT GIGUS Z40 AMVAR |
| Aircraft | A359/H-SDE2E3GHIJ3J4J5LM1ORWXY/LB1D1 |
Departure
| Time | 2026-05-07 10:50 |
|---|---|
| Airport | Corfu Ioannis Kapodistrias International Airport (LGKR) |
Arrival
| Time | N/A |
|---|---|
| Airport | Lyon Saint-Exupéry Airport (LFLL) |
| Time | Latitude | Longitude | Altitude | Speed | Heading |
|---|---|---|---|---|---|
| 2026-05-07 10:49 | 39.57494 | 19.82627 | 11429 ft | 346 kts | 311° |
| 2026-05-07 10:50 | 39.59240 | 19.80468 | 12008 ft | 355 kts | 310° |
| 2026-05-07 10:50 | 39.60911 | 19.78110 | 12830 ft | 355 kts | 303° |
| 2026-05-07 10:50 | 39.62440 | 19.75577 | 13636 ft | 358 kts | 301° |
| 2026-05-07 10:50 | 39.63948 | 19.72989 | 14397 ft | 361 kts | 300° |
| 2026-05-07 10:51 | 39.65460 | 19.70370 | 15152 ft | 364 kts | 301° |
| 2026-05-07 10:51 | 39.66986 | 19.67726 | 15866 ft | 368 kts | 301° |
| 2026-05-07 10:51 | 39.68528 | 19.65052 | 16599 ft | 372 kts | 301° |
| 2026-05-07 10:51 | 39.70084 | 19.62350 | 17315 ft | 376 kts | 301° |
| 2026-05-07 10:52 | 39.71657 | 19.59619 | 18037 ft | 379 kts | 301° |
| 2026-05-07 10:52 | 39.73223 | 19.56896 | 18678 ft | 383 kts | 301° |
| 2026-05-07 10:52 | 39.74827 | 19.54105 | 19290 ft | 387 kts | 301° |
| 2026-05-07 10:52 | 39.76446 | 19.51286 | 19918 ft | 391 kts | 301° |
| 2026-05-07 10:53 | 39.78080 | 19.48440 | 20577 ft | 395 kts | 301° |
| 2026-05-07 10:53 | 39.79726 | 19.45566 | 21258 ft | 398 kts | 301° |
| 2026-05-07 10:53 | 39.81381 | 19.42661 | 21935 ft | 402 kts | 301° |
| 2026-05-07 10:53 | 39.83053 | 19.39724 | 22581 ft | 406 kts | 301° |
| 2026-05-07 10:54 | 39.84739 | 19.36758 | 23231 ft | 410 kts | 301° |
| 2026-05-07 10:54 | 39.86444 | 19.33759 | 23825 ft | 414 kts | 301° |
| 2026-05-07 10:54 | 39.88165 | 19.30731 | 24376 ft | 417 kts | 301° |
| 2026-05-07 10:54 | 39.89873 | 19.27723 | 24916 ft | 420 kts | 301° |
| 2026-05-07 10:55 | 39.91615 | 19.24653 | 25470 ft | 423 kts | 301° |
| 2026-05-07 10:55 | 39.93366 | 19.21563 | 26029 ft | 425 kts | 301° |
| 2026-05-07 10:55 | 39.95131 | 19.18443 | 26458 ft | 432 kts | 301° |
| 2026-05-07 10:55 | 39.96928 | 19.15260 | 26779 ft | 440 kts | 302° |
| 2026-05-07 10:56 | 39.98749 | 19.12039 | 27323 ft | 442 kts | 302° |
| 2026-05-07 10:56 | 40.00575 | 19.08809 | 27959 ft | 443 kts | 302° |
| 2026-05-07 10:56 | 40.02405 | 19.05564 | 28492 ft | 446 kts | 302° |
| 2026-05-07 10:56 | 40.04246 | 19.02293 | 28974 ft | 449 kts | 302° |
| 2026-05-07 10:57 | 40.06077 | 18.99038 | 29438 ft | 452 kts | 302° |
| 2026-05-07 10:57 | 40.07935 | 18.95709 | 29898 ft | 455 kts | 302° |
| 2026-05-07 10:57 | 40.09799 | 18.92345 | 30322 ft | 458 kts | 302° |
| 2026-05-07 10:57 | 40.11672 | 18.88969 | 30767 ft | 459 kts | 302° |
| 2026-05-07 10:58 | 40.13549 | 18.85601 | 31251 ft | 459 kts | 302° |
| 2026-05-07 10:58 | 40.15431 | 18.82234 | 31723 ft | 458 kts | 302° |
| 2026-05-07 10:58 | 40.17312 | 18.78874 | 32146 ft | 458 kts | 302° |
| 2026-05-07 10:58 | 40.19192 | 18.75518 | 32668 ft | 454 kts | 302° |
| 2026-05-07 10:59 | 40.21024 | 18.72253 | 33324 ft | 449 kts | 302° |
| 2026-05-07 10:59 | 40.22862 | 18.68967 | 33815 ft | 446 kts | 301° |
| 2026-05-07 10:59 | 40.24690 | 18.65690 | 34223 ft | 446 kts | 302° |
| 2026-05-07 10:59 | 40.26528 | 18.62383 | 34338 ft | 451 kts | 302° |
| 2026-05-07 11:00 | 40.28379 | 18.59055 | 34600 ft | 451 kts | 302° |
| 2026-05-07 11:00 | 40.30220 | 18.55744 | 35013 ft | 448 kts | 301° |
| 2026-05-07 11:00 | 40.32051 | 18.52452 | 35377 ft | 446 kts | 301° |
| 2026-05-07 11:00 | 40.33877 | 18.49167 | 35707 ft | 445 kts | 301° |
| 2026-05-07 11:01 | 40.35701 | 18.45885 | 36014 ft | 445 kts | 301° |
| 2026-05-07 11:01 | 40.37492 | 18.42657 | 36307 ft | 444 kts | 301° |
| 2026-05-07 11:01 | 40.39303 | 18.39394 | 36690 ft | 441 kts | 301° |
| 2026-05-07 11:01 | 40.41099 | 18.36153 | 37047 ft | 439 kts | 301° |
| 2026-05-07 11:02 | 40.42890 | 18.32918 | 37338 ft | 438 kts | 301° |
| 2026-05-07 11:02 | 40.44675 | 18.29689 | 37619 ft | 437 kts | 301° |
| 2026-05-07 11:02 | 40.46456 | 18.26458 | 37894 ft | 436 kts | 301° |
| 2026-05-07 11:02 | 40.48136 | 18.23161 | 38191 ft | 433 kts | 297° |
| 2026-05-07 11:03 | 40.49703 | 18.19793 | 38439 ft | 432 kts | 296° |
| 2026-05-07 11:03 | 40.51206 | 18.16443 | 38673 ft | 431 kts | 295° |
| 2026-05-07 11:03 | 40.52721 | 18.13045 | 38873 ft | 431 kts | 296° |
| 2026-05-07 11:03 | 40.54245 | 18.09659 | 39012 ft | 431 kts | 296° |
| 2026-05-07 11:04 | 40.57363 | 18.02836 | 39039 ft | 440 kts | 296° |
| 2026-05-07 11:04 | 40.58953 | 17.99394 | 39170 ft | 440 kts | 296° |
| 2026-05-07 11:04 | 40.60543 | 17.95961 | 39373 ft | 439 kts | 296° |
| 2026-05-07 11:05 | 40.62132 | 17.92532 | 39518 ft | 439 kts | 296° |
| 2026-05-07 11:05 | 40.63722 | 17.89098 | 39662 ft | 439 kts | 296° |
| 2026-05-07 11:05 | 40.65290 | 17.85705 | 39797 ft | 440 kts | 296° |
| 2026-05-07 11:05 | 40.66877 | 17.82263 | 39929 ft | 440 kts | 296° |
| 2026-05-07 11:06 | 40.68466 | 17.78812 | 40054 ft | 441 kts | 296° |
| 2026-05-07 11:06 | 40.70052 | 17.75362 | 40069 ft | 441 kts | 296° |
| 2026-05-07 11:06 | 40.73221 | 17.68459 | 40068 ft | 439 kts | 296° |
| 2026-05-07 11:07 | 40.76370 | 17.61580 | 40066 ft | 438 kts | 296° |
| 2026-05-07 11:07 | 40.79489 | 17.54749 | 40065 ft | 438 kts | 296° |
| 2026-05-07 11:08 | 40.82627 | 17.47864 | 40063 ft | 438 kts | 296° |
| 2026-05-07 11:08 | 40.85759 | 17.40974 | 40065 ft | 438 kts | 296° |
| 2026-05-07 11:09 | 40.88889 | 17.34075 | 40064 ft | 439 kts | 296° |
| 2026-05-07 11:09 | 40.92006 | 17.27186 | 40055 ft | 440 kts | 296° |
| 2026-05-07 11:10 | 40.95149 | 17.20225 | 40059 ft | 441 kts | 296° |
| 2026-05-07 11:10 | 40.98286 | 17.13264 | 40056 ft | 440 kts | 296° |
| 2026-05-07 11:11 | 41.01419 | 17.06295 | 40050 ft | 440 kts | 296° |
| 2026-05-07 11:11 | 41.04545 | 16.99326 | 40048 ft | 440 kts | 296° |
| 2026-05-07 11:12 | 41.07641 | 16.92409 | 40048 ft | 439 kts | 296° |
| 2026-05-07 11:12 | 41.10751 | 16.85441 | 40020 ft | 439 kts | 296° |
| 2026-05-07 11:13 | 41.13859 | 16.78462 | 40020 ft | 439 kts | 296° |
| 2026-05-07 11:13 | 41.16866 | 16.71417 | 40020 ft | 438 kts | 293° |
| 2026-05-07 11:14 | 41.19701 | 16.64268 | 40026 ft | 438 kts | 293° |
| 2026-05-07 11:14 | 41.22516 | 16.57148 | 40024 ft | 439 kts | 293° |
| 2026-05-07 11:15 | 41.25378 | 16.49983 | 40024 ft | 439 kts | 293° |
| 2026-05-07 11:15 | 41.28250 | 16.42818 | 40024 ft | 439 kts | 293° |
| 2026-05-07 11:16 | 41.31118 | 16.35655 | 40023 ft | 439 kts | 293° |
| 2026-05-07 11:16 | 41.33962 | 16.28530 | 40016 ft | 439 kts | 293° |
| 2026-05-07 11:17 | 41.36818 | 16.21353 | 40015 ft | 439 kts | 293° |
| 2026-05-07 11:17 | 41.39669 | 16.14172 | 40013 ft | 439 kts | 293° |
| 2026-05-07 11:18 | 41.42516 | 16.06983 | 40013 ft | 439 kts | 293° |
| 2026-05-07 11:18 | 41.45338 | 15.99840 | 40010 ft | 439 kts | 293° |
| 2026-05-07 11:19 | 41.48174 | 15.92647 | 40009 ft | 438 kts | 292° |
| 2026-05-07 11:19 | 41.51004 | 15.85447 | 40036 ft | 438 kts | 292° |
| 2026-05-07 11:20 | 41.53836 | 15.78226 | 40014 ft | 440 kts | 292° |
| 2026-05-07 11:20 | 41.56671 | 15.70977 | 40031 ft | 441 kts | 292° |
| 2026-05-07 11:21 | 41.59485 | 15.63768 | 40051 ft | 441 kts | 292° |
| 2026-05-07 11:21 | 41.62310 | 15.56513 | 40018 ft | 440 kts | 292° |
| 2026-05-07 11:22 | 41.65126 | 15.49262 | 40015 ft | 439 kts | 292° |
| 2026-05-07 11:22 | 41.67934 | 15.42010 | 40012 ft | 439 kts | 292° |
| 2026-05-07 11:23 | 41.70739 | 15.34751 | 40009 ft | 439 kts | 292° |
| 2026-05-07 11:23 | 41.73522 | 15.27531 | 40016 ft | 439 kts | 292° |
| 2026-05-07 11:24 | 41.76312 | 15.20274 | 40009 ft | 438 kts | 292° |
| 2026-05-07 11:24 | 41.79095 | 15.13019 | 40010 ft | 438 kts | 292° |
| 2026-05-07 11:25 | 41.81871 | 15.05761 | 40009 ft | 438 kts | 291° |
| 2026-05-07 11:25 | 41.84624 | 14.98544 | 40010 ft | 438 kts | 291° |
| 2026-05-07 11:26 | 41.87392 | 14.91273 | 40027 ft | 438 kts | 291° |
| 2026-05-07 11:26 | 41.90155 | 14.83998 | 40015 ft | 438 kts | 291° |
| 2026-05-07 11:27 | 41.92914 | 14.76713 | 40015 ft | 437 kts | 291° |
| 2026-05-07 11:27 | 41.95664 | 14.69430 | 40016 ft | 437 kts | 291° |
| 2026-05-07 11:28 | 41.98391 | 14.62191 | 40015 ft | 437 kts | 291° |
| 2026-05-07 11:28 | 42.01132 | 14.54900 | 40015 ft | 437 kts | 291° |
| 2026-05-07 11:29 | 42.03869 | 14.47599 | 40015 ft | 437 kts | 291° |
| 2026-05-07 11:29 | 42.06602 | 14.40289 | 40015 ft | 437 kts | 291° |
| 2026-05-07 11:30 | 42.09330 | 14.32979 | 40014 ft | 437 kts | 291° |
| 2026-05-07 11:30 | 42.12035 | 14.25708 | 40014 ft | 437 kts | 291° |
| 2026-05-07 11:31 | 42.14751 | 14.18385 | 40026 ft | 438 kts | 291° |
| 2026-05-07 11:31 | 42.17686 | 14.11130 | 40014 ft | 446 kts | 295° |
| 2026-05-07 11:32 | 42.22580 | 14.00599 | 40017 ft | 442 kts | 296° |
| 2026-05-07 11:33 | 42.25880 | 13.93595 | 40014 ft | 442 kts | 296° |
| 2026-05-07 11:33 | 42.29169 | 13.86583 | 40011 ft | 441 kts | 296° |
| 2026-05-07 11:34 | 42.32446 | 13.79564 | 40014 ft | 442 kts | 296° |
| 2026-05-07 11:34 | 42.35727 | 13.72517 | 40006 ft | 443 kts | 296° |
| 2026-05-07 11:35 | 42.38985 | 13.65505 | 40013 ft | 444 kts | 296° |
| 2026-05-07 11:35 | 42.42264 | 13.58430 | 40017 ft | 444 kts | 296° |
| 2026-05-07 11:36 | 42.45544 | 13.51339 | 39998 ft | 444 kts | 296° |
| 2026-05-07 11:36 | 42.48825 | 13.44234 | 40007 ft | 446 kts | 296° |
| 2026-05-07 11:37 | 42.52105 | 13.37096 | 40009 ft | 446 kts | 296° |
| 2026-05-07 11:37 | 42.55366 | 13.29992 | 40006 ft | 447 kts | 296° |
| 2026-05-07 11:38 | 42.58646 | 13.22830 | 39999 ft | 447 kts | 295° |
| 2026-05-07 11:38 | 42.61922 | 13.15656 | 40012 ft | 447 kts | 295° |
| 2026-05-07 11:39 | 42.65197 | 13.08474 | 40022 ft | 447 kts | 295° |
| 2026-05-07 11:39 | 42.68450 | 13.01322 | 40024 ft | 448 kts | 295° |
| 2026-05-07 11:40 | 42.71726 | 12.94105 | 40022 ft | 449 kts | 295° |
| 2026-05-07 11:40 | 42.75003 | 12.86855 | 40021 ft | 450 kts | 295° |
| 2026-05-07 11:41 | 42.78278 | 12.79598 | 40013 ft | 450 kts | 295° |
| 2026-05-07 11:41 | 42.81547 | 12.72336 | 40010 ft | 450 kts | 295° |
| 2026-05-07 11:42 | 42.84798 | 12.65099 | 40009 ft | 451 kts | 295° |
| 2026-05-07 11:42 | 42.88067 | 12.57802 | 40010 ft | 451 kts | 295° |
| 2026-05-07 11:43 | 42.91331 | 12.50499 | 40017 ft | 451 kts | 295° |
| 2026-05-07 11:43 | 42.94594 | 12.43181 | 40018 ft | 451 kts | 295° |
| 2026-05-07 11:44 | 42.97830 | 12.35903 | 40020 ft | 452 kts | 295° |
| 2026-05-07 11:44 | 43.01091 | 12.28553 | 40018 ft | 453 kts | 295° |
| 2026-05-07 11:45 | 43.04348 | 12.21190 | 40018 ft | 453 kts | 295° |
| 2026-05-07 11:45 | 43.07602 | 12.13820 | 40017 ft | 453 kts | 295° |
| 2026-05-07 11:46 | 43.10830 | 12.06488 | 40018 ft | 453 kts | 295° |
| 2026-05-07 11:46 | 43.14076 | 11.99098 | 40023 ft | 453 kts | 295° |
| 2026-05-07 11:47 | 43.17321 | 11.91688 | 40022 ft | 454 kts | 295° |
| 2026-05-07 11:47 | 43.20564 | 11.84266 | 40020 ft | 454 kts | 295° |
| 2026-05-07 11:48 | 43.23803 | 11.76834 | 40024 ft | 454 kts | 295° |